createdAt,value
2023-03-28T00:02:08.194Z,6.50
2023-03-28T00:04:55.295Z,6.38
2023-03-28T00:07:42.696Z,6.80
2023-03-28T00:10:30.068Z,7.63
2023-03-28T00:13:20.029Z,10.60
2023-03-28T00:16:10.205Z,10.13
2023-03-28T00:21:50.074Z,11.77
2023-03-28T00:24:39.065Z,9.93
2023-03-28T00:27:26.333Z,9.63
2023-03-28T00:30:13.407Z,12.40
2023-03-28T00:33:00.540Z,12.35
2023-03-28T00:35:47.656Z,12.50
2023-03-28T00:38:34.797Z,13.45
2023-03-28T00:41:23.004Z,14.88
2023-03-28T00:44:42.770Z,12.63
2023-03-28T00:47:44.108Z,11.57
2023-03-28T00:50:46.682Z,10.32
2023-03-28T00:53:34.005Z,10.38
2023-03-28T00:56:25.370Z,8.60
2023-03-28T00:59:17.691Z,11.57
2023-03-28T01:02:05.646Z,9.75
2023-03-28T01:05:00.006Z,9.35
2023-03-28T01:07:51.573Z,9.07
2023-03-28T01:10:38.975Z,8.88
2023-03-28T01:13:30.366Z,10.77
2023-03-28T01:16:20.386Z,8.43
2023-03-28T01:19:21.927Z,8.02
2023-03-28T01:22:56.490Z,7.63
2023-03-28T01:26:05.058Z,9.27
2023-03-28T01:29:10.462Z,7.22
2023-03-28T01:32:35.080Z,8.57
2023-03-28T01:35:46.651Z,7.32
2023-03-28T01:38:54.785Z,7.95
2023-03-28T01:42:08.932Z,7.38
2023-03-28T01:45:34.534Z,8.80
2023-03-28T01:48:25.315Z,12.00
2023-03-28T01:51:25.259Z,7.90
2023-03-28T01:54:39.434Z,9.32
2023-03-28T01:57:38.386Z,7.82
2023-03-28T02:00:33.810Z,6.57
2023-03-28T02:03:27.946Z,6.75
2023-03-28T02:06:17.305Z,8.88
2023-03-28T02:09:06.066Z,8.55
2023-03-28T02:12:19.390Z,10.07
2023-03-28T02:15:10.663Z,11.05
2023-03-28T02:18:07.053Z,12.82
2023-03-28T02:21:01.054Z,12.48
2023-03-28T02:23:54.168Z,11.65
2023-03-28T02:26:41.728Z,10.38
2023-03-28T02:29:30.765Z,9.55
2023-03-28T02:32:21.847Z,8.32
2023-03-28T02:35:09.243Z,5.80
2023-03-28T02:38:16.823Z,5.45
2023-03-28T02:41:37.055Z,4.28
2023-03-28T02:47:24.247Z,3.75
2023-03-28T02:50:17.386Z,5.20
2023-03-28T02:53:14.652Z,4.25
2023-03-28T02:56:32.111Z,3.05
2023-03-28T02:59:27.725Z,2.70
2023-03-28T03:02:21.599Z,2.65
2023-03-28T03:05:09.855Z,2.13
2023-03-28T03:07:56.987Z,2.10
2023-03-28T03:10:44.052Z,4.93
2023-03-28T03:13:31.501Z,2.10
2023-03-28T03:16:18.638Z,3.33
2023-03-28T03:19:05.894Z,1.98
2023-03-28T03:21:54.310Z,4.53
2023-03-28T03:24:41.371Z,3.47
2023-03-28T03:27:28.410Z,2.75
2023-03-28T03:30:15.550Z,2.90
2023-03-28T03:33:02.802Z,4.45
2023-03-28T03:35:50.187Z,2.85
2023-03-28T03:38:37.276Z,4.00
2023-03-28T03:41:24.377Z,2.42
2023-03-28T03:44:11.428Z,2.78
2023-03-28T03:46:58.718Z,3.40
2023-03-28T03:49:46.017Z,4.43
2023-03-28T03:52:33.071Z,3.72
2023-03-28T03:55:20.955Z,3.55
2023-03-28T03:58:08.096Z,5.95
2023-03-28T04:00:55.877Z,3.38
2023-03-28T04:03:43.434Z,2.90
2023-03-28T04:06:30.568Z,3.33
2023-03-28T04:09:17.683Z,4.50
2023-03-28T04:12:08.436Z,3.90
2023-03-28T04:14:55.502Z,4.00
2023-03-28T04:17:44.485Z,4.15
2023-03-28T04:20:31.889Z,4.78
2023-03-28T04:23:20.500Z,3.38
2023-03-28T04:26:08.906Z,3.95
2023-03-28T04:28:57.330Z,5.72
2023-03-28T04:31:51.720Z,3.85
2023-03-28T04:34:39.271Z,3.47
2023-03-28T04:37:27.844Z,5.45
2023-03-28T04:40:16.309Z,5.22
2023-03-28T04:43:03.412Z,4.68
2023-03-28T04:45:50.619Z,5.05
2023-03-28T04:48:37.836Z,5.93
2023-03-28T04:51:25.307Z,7.43
2023-03-28T04:54:12.400Z,4.38
2023-03-28T04:56:59.523Z,5.15
2023-03-28T04:59:46.615Z,4.85
2023-03-28T05:02:33.699Z,5.97
2023-03-28T05:05:21.069Z,5.78
2023-03-28T05:08:08.531Z,6.93
2023-03-28T05:10:56.128Z,6.45
2023-03-28T05:13:43.222Z,6.03
2023-03-28T05:16:30.662Z,5.78
2023-03-28T05:19:18.276Z,6.88
2023-03-28T05:22:05.357Z,7.40
2023-03-28T05:24:52.448Z,5.22
2023-03-28T05:27:39.533Z,5.18
2023-03-28T05:30:26.816Z,8.50
2023-03-28T05:33:14.064Z,7.82
2023-03-28T05:36:02.160Z,4.68
2023-03-28T05:38:49.868Z,6.13
2023-03-28T05:41:36.932Z,6.18
2023-03-28T05:44:24.071Z,6.35
2023-03-28T05:47:11.186Z,7.55
2023-03-28T05:49:58.500Z,8.48
2023-03-28T05:52:45.536Z,6.07
2023-03-28T05:55:33.805Z,6.90
2023-03-28T05:58:22.563Z,7.78
2023-03-28T06:01:10.136Z,5.28
2023-03-28T06:03:58.562Z,8.20
2023-03-28T06:06:45.835Z,8.02
2023-03-28T06:09:34.982Z,6.63
2023-03-28T06:12:22.073Z,7.85
2023-03-28T06:15:10.086Z,6.35
2023-03-28T06:17:58.236Z,5.32
2023-03-28T06:20:45.630Z,6.95
2023-03-28T06:23:32.800Z,5.90
2023-03-28T06:26:19.951Z,5.15
2023-03-28T06:29:07.256Z,5.63
2023-03-28T06:31:54.578Z,6.88
2023-03-28T06:34:41.753Z,5.80
2023-03-28T06:37:28.812Z,7.95
2023-03-28T06:40:16.207Z,7.97
2023-03-28T06:43:03.318Z,6.25
2023-03-28T06:45:50.487Z,10.82
2023-03-28T06:48:37.817Z,5.25
2023-03-28T06:51:25.489Z,6.65
2023-03-28T06:54:12.548Z,8.80
2023-03-28T06:56:59.731Z,4.00
2023-03-28T06:59:46.825Z,6.93
2023-03-28T07:02:34.217Z,7.82
2023-03-28T07:05:21.309Z,9.82
2023-03-28T07:08:10.373Z,5.63
2023-03-28T07:10:57.558Z,8.65
2023-03-28T07:13:44.879Z,7.30
2023-03-28T07:16:32.089Z,7.45
2023-03-28T07:19:19.316Z,7.88
2023-03-28T07:22:06.440Z,5.53
2023-03-28T07:24:53.757Z,5.65
2023-03-28T07:27:41.558Z,6.40
2023-03-28T07:30:28.692Z,8.65
2023-03-28T07:33:21.509Z,5.75
2023-03-28T07:36:16.731Z,9.68
2023-03-28T07:39:05.138Z,4.85
2023-03-28T07:41:52.201Z,10.35
2023-03-28T07:44:41.810Z,7.63
2023-03-28T07:50:17.926Z,11.30
2023-03-28T07:53:04.983Z,7.85
2023-03-28T07:55:55.696Z,6.53
2023-03-28T07:58:43.405Z,7.70
2023-03-28T08:01:30.437Z,5.35
2023-03-28T08:04:17.937Z,4.30
2023-03-28T08:07:07.764Z,4.78
2023-03-28T08:09:57.078Z,6.32
2023-03-28T08:12:46.173Z,6.15
2023-03-28T08:15:33.308Z,5.07
2023-03-28T08:18:24.581Z,5.68
2023-03-28T08:21:11.707Z,3.92
2023-03-28T08:23:59.216Z,7.88
2023-03-28T08:26:48.604Z,8.18
2023-03-28T08:29:36.044Z,8.35
2023-03-28T08:32:23.213Z,7.45
2023-03-28T08:35:10.930Z,3.65
2023-03-28T08:37:58.158Z,4.05
2023-03-28T08:40:56.812Z,5.32
2023-03-28T08:43:58.978Z,8.68
2023-03-28T08:46:50.397Z,5.65
2023-03-28T08:49:48.627Z,4.30
2023-03-28T08:52:39.767Z,7.25
2023-03-28T08:55:38.663Z,3.88
2023-03-28T08:58:31.744Z,7.57
2023-03-28T09:01:22.363Z,6.05
2023-03-28T09:04:22.461Z,5.70
2023-03-28T09:10:34.874Z,5.82
2023-03-28T09:13:27.861Z,4.70
2023-03-28T09:16:33.263Z,5.97
2023-03-28T09:19:37.069Z,7.18
2023-03-28T09:22:52.982Z,5.13
2023-03-28T09:25:57.894Z,5.35
2023-03-28T09:29:02.149Z,4.47
2023-03-28T09:31:51.440Z,3.95
2023-03-28T09:34:45.050Z,2.65
2023-03-28T09:37:41.066Z,6.50
2023-03-28T09:40:33.590Z,3.80
2023-03-28T09:43:46.200Z,5.28
2023-03-28T09:46:47.072Z,5.20
2023-03-28T09:49:34.481Z,7.93
2023-03-28T09:52:22.166Z,9.00
2023-03-28T09:55:18.078Z,7.80
2023-03-28T09:58:11.484Z,7.53
2023-03-28T10:00:58.788Z,4.35
2023-03-28T10:03:54.373Z,5.57
2023-03-28T10:06:43.078Z,6.97
2023-03-28T10:09:30.179Z,7.53
2023-03-28T10:12:32.135Z,6.07
2023-03-28T10:15:45.457Z,5.43
2023-03-28T10:18:33.125Z,6.97
2023-03-28T10:21:26.615Z,4.22
2023-03-28T10:24:17.394Z,3.72
2023-03-28T10:27:14.897Z,7.20
2023-03-28T10:30:25.538Z,4.30
2023-03-28T10:33:18.526Z,4.25
2023-03-28T10:36:09.852Z,6.32
2023-03-28T10:38:57.635Z,7.07
2023-03-28T10:41:58.149Z,8.73
2023-03-28T10:44:59.019Z,5.85
2023-03-28T10:47:47.193Z,5.60
2023-03-28T10:50:43.774Z,5.82
2023-03-28T10:54:00.361Z,3.90
2023-03-28T10:56:53.487Z,4.68
2023-03-28T11:00:02.100Z,4.68
2023-03-28T11:03:26.488Z,5.13
2023-03-28T11:06:16.582Z,5.55
2023-03-28T11:09:31.853Z,7.85
2023-03-28T11:12:51.259Z,5.68
2023-03-28T11:15:47.190Z,4.03
2023-03-28T11:18:37.221Z,6.13
2023-03-28T11:22:04.545Z,7.68
2023-03-28T11:25:19.390Z,5.88
2023-03-28T11:28:18.516Z,7.53
2023-03-28T11:31:06.102Z,3.05
2023-03-28T11:34:06.541Z,4.90
2023-03-28T11:37:01.017Z,7.63
2023-03-28T11:39:56.003Z,6.95
2023-03-28T11:43:10.094Z,5.05
2023-03-28T11:46:13.996Z,8.02
2023-03-28T11:49:12.506Z,4.78
2023-03-28T11:52:11.409Z,7.13
2023-03-28T11:55:21.540Z,4.05
2023-03-28T11:58:30.046Z,4.28
2023-03-28T12:01:29.070Z,5.55
2023-03-28T12:04:39.391Z,2.33
2023-03-28T12:07:36.078Z,3.00
2023-03-28T12:10:26.390Z,2.22
2023-03-28T12:13:21.051Z,2.67
2023-03-28T12:16:13.024Z,6.20
2023-03-28T12:19:03.549Z,2.88
2023-03-28T12:21:59.662Z,3.15
2023-03-28T12:24:57.311Z,3.33
2023-03-28T12:27:45.425Z,5.45
2023-03-28T12:30:45.579Z,5.10
2023-03-28T12:33:43.616Z,10.80
2023-03-28T12:36:39.480Z,5.57
2023-03-28T12:40:20.065Z,5.18
2023-03-28T12:43:09.105Z,5.40
2023-03-28T12:46:01.085Z,4.97
2023-03-28T12:49:22.480Z,4.20
2023-03-28T12:52:19.332Z,4.28
2023-03-28T12:55:26.642Z,5.22
2023-03-28T12:58:36.043Z,6.35
2023-03-28T13:01:33.836Z,6.82
2023-03-28T13:04:58.902Z,6.18
2023-03-28T13:07:58.343Z,6.30
2023-03-28T13:11:07.875Z,4.32
2023-03-28T13:14:19.504Z,2.13
2023-03-28T13:17:23.777Z,3.40
2023-03-28T13:20:16.895Z,4.15
2023-03-28T13:23:08.088Z,3.05
2023-03-28T13:25:57.529Z,2.38
2023-03-28T13:28:51.750Z,3.85
2023-03-28T13:31:43.719Z,3.17
2023-03-28T13:34:34.002Z,2.25
2023-03-28T13:37:24.009Z,1.38
2023-03-28T13:43:41.885Z,1.95
2023-03-28T13:46:43.888Z,2.28
2023-03-28T13:49:31.068Z,1.30
2023-03-28T13:52:22.013Z,3.90
2023-03-28T13:55:22.651Z,2.13
2023-03-28T13:58:13.500Z,4.03
2023-03-28T14:01:16.792Z,2.00
2023-03-28T14:04:16.052Z,2.72
2023-03-28T14:07:03.190Z,2.33
2023-03-28T14:09:51.280Z,3.05
2023-03-28T14:12:38.464Z,1.40
2023-03-28T14:15:30.237Z,6.00
2023-03-28T14:18:24.865Z,3.72
2023-03-28T14:21:12.254Z,5.10
2023-03-28T14:24:02.211Z,6.97
2023-03-28T14:26:50.510Z,2.45
2023-03-28T14:29:52.071Z,3.65
2023-03-28T14:32:54.510Z,4.05
2023-03-28T14:35:57.477Z,3.13
2023-03-28T14:38:44.629Z,2.92
2023-03-28T14:41:35.980Z,3.15
2023-03-28T14:44:23.766Z,4.88
2023-03-28T14:47:32.500Z,7.10
2023-03-28T14:50:21.958Z,5.93
2023-03-28T14:53:22.515Z,4.10
2023-03-28T14:56:14.244Z,6.15
2023-03-28T14:59:04.061Z,5.28
2023-03-28T15:01:52.536Z,5.93
2023-03-28T15:04:39.796Z,5.82
2023-03-28T15:07:28.559Z,4.28
2023-03-28T15:10:19.751Z,3.35
2023-03-28T15:13:18.359Z,4.90
2023-03-28T15:16:08.386Z,2.65
2023-03-28T15:22:09.929Z,6.40
2023-03-28T15:24:58.282Z,5.40
2023-03-28T15:27:51.699Z,9.95
2023-03-28T15:30:44.366Z,3.58
2023-03-28T15:33:46.388Z,3.28
2023-03-28T15:36:34.850Z,4.15
2023-03-28T15:39:28.161Z,3.40
2023-03-28T15:42:21.748Z,4.20
2023-03-28T15:45:22.837Z,2.65
2023-03-28T15:48:16.526Z,5.93
2023-03-28T15:51:07.025Z,4.63
2023-03-28T15:53:55.488Z,3.47
2023-03-28T15:56:48.023Z,2.42
2023-03-28T15:59:42.414Z,4.45
2023-03-28T16:02:33.462Z,2.63
2023-03-28T16:05:34.922Z,4.95
2023-03-28T16:08:34.951Z,4.53
2023-03-28T16:11:24.171Z,2.97
2023-03-28T16:14:18.277Z,5.00
2023-03-28T16:17:10.486Z,4.47
2023-03-28T16:19:59.240Z,3.58
2023-03-28T16:22:46.902Z,4.60
2023-03-28T16:25:34.434Z,4.72
2023-03-28T16:28:21.555Z,4.70
2023-03-28T16:31:13.562Z,2.28
2023-03-28T16:34:00.779Z,3.45
2023-03-28T16:36:47.812Z,4.93
2023-03-28T16:39:36.263Z,6.60
2023-03-28T16:42:24.806Z,3.90
2023-03-28T16:45:13.892Z,3.67
2023-03-28T16:48:08.274Z,4.47
2023-03-28T16:50:56.391Z,6.28
2023-03-28T16:53:44.704Z,5.60
2023-03-28T16:56:32.675Z,1.85
2023-03-28T16:59:21.003Z,2.75
2023-03-28T17:02:09.834Z,4.60
2023-03-28T17:04:57.360Z,3.92
2023-03-28T17:07:44.951Z,3.63
2023-03-28T17:10:32.328Z,7.07
2023-03-28T17:13:19.779Z,2.38
2023-03-28T17:16:08.729Z,5.85
2023-03-28T17:18:57.176Z,3.88
2023-03-28T17:21:44.828Z,4.30
2023-03-28T17:24:32.724Z,3.38
2023-03-28T17:27:22.516Z,4.85
2023-03-28T17:30:13.346Z,2.30
2023-03-28T17:33:05.393Z,2.80
2023-03-28T17:35:53.656Z,3.20
2023-03-28T17:38:41.621Z,6.28
2023-03-28T17:41:30.315Z,4.35
2023-03-28T17:44:18.732Z,2.75
2023-03-28T17:47:07.272Z,1.25
2023-03-28T17:49:58.044Z,3.30
2023-03-28T17:52:46.961Z,4.05
2023-03-28T17:55:36.495Z,3.42
2023-03-28T17:58:26.339Z,6.67
2023-03-28T18:01:19.879Z,7.57
2023-03-28T18:04:08.751Z,1.35
2023-03-28T18:06:58.577Z,3.45
2023-03-28T18:09:47.231Z,3.30
2023-03-28T18:12:36.317Z,6.07
2023-03-28T18:15:25.346Z,3.67
2023-03-28T18:18:13.448Z,5.27
2023-03-28T18:21:03.798Z,3.28
2023-03-28T18:23:52.268Z,5.88
2023-03-28T18:26:40.762Z,1.95
2023-03-28T18:29:32.041Z,8.20
2023-03-28T18:32:22.968Z,4.38
2023-03-28T18:35:13.457Z,2.78
2023-03-28T18:38:02.610Z,4.00
2023-03-28T18:40:54.416Z,2.87
2023-03-28T18:43:44.517Z,4.25
2023-03-28T18:46:34.773Z,4.50
2023-03-28T18:49:26.906Z,2.97
2023-03-28T18:52:17.858Z,5.70
2023-03-28T18:55:11.151Z,7.70
2023-03-28T18:58:00.465Z,6.50
2023-03-28T19:00:55.427Z,7.57
2023-03-28T19:03:46.237Z,5.03
2023-03-28T19:06:38.501Z,4.13
2023-03-28T19:09:28.021Z,3.90
2023-03-28T19:12:17.638Z,3.65
2023-03-28T19:15:11.662Z,5.45
2023-03-28T19:18:02.266Z,3.95
2023-03-28T19:20:55.571Z,6.03
2023-03-28T19:23:44.060Z,9.32
2023-03-28T19:26:32.588Z,4.65
2023-03-28T19:29:22.789Z,3.40
2023-03-28T19:34:58.268Z,4.32
2023-03-28T19:37:47.509Z,4.20
2023-03-28T19:40:35.627Z,3.00
2023-03-28T19:43:24.631Z,4.43
2023-03-28T19:46:19.080Z,3.28
2023-03-28T19:49:13.160Z,4.82
2023-03-28T19:52:01.396Z,3.83
2023-03-28T19:54:49.336Z,6.05
2023-03-28T19:57:37.947Z,6.15
2023-03-28T20:00:27.386Z,5.10
2023-03-28T20:03:21.107Z,4.38
2023-03-28T20:06:12.655Z,6.40
2023-03-28T20:09:02.491Z,3.85
2023-03-28T20:11:51.370Z,7.20
2023-03-28T20:14:39.135Z,4.75
2023-03-28T20:17:28.204Z,3.13
2023-03-28T20:20:15.993Z,3.47
2023-03-28T20:23:04.228Z,3.17
2023-03-28T20:25:53.845Z,3.72
2023-03-28T20:28:41.809Z,5.95
2023-03-28T20:31:29.558Z,3.83
2023-03-28T20:34:18.902Z,4.55
2023-03-28T20:37:06.753Z,3.83
2023-03-28T20:39:55.377Z,6.13
2023-03-28T20:42:52.859Z,3.97
2023-03-28T20:45:46.197Z,6.53
2023-03-28T20:48:36.953Z,5.53
2023-03-28T20:51:26.120Z,3.75
2023-03-28T20:54:14.041Z,4.10
2023-03-28T20:57:01.149Z,6.25
2023-03-28T20:59:48.615Z,3.75
2023-03-28T21:02:36.509Z,4.53
2023-03-28T21:05:25.107Z,6.50
2023-03-28T21:08:14.420Z,6.82
2023-03-28T21:11:03.892Z,3.30
2023-03-28T21:13:51.211Z,5.32
2023-03-28T21:16:38.620Z,5.50
2023-03-28T21:19:26.270Z,2.35
2023-03-28T21:22:13.425Z,3.70
2023-03-28T21:25:05.428Z,4.45
2023-03-28T21:27:52.870Z,2.65
2023-03-28T21:30:40.368Z,2.17
2023-03-28T21:33:28.925Z,2.85
2023-03-28T21:36:17.811Z,4.28
2023-03-28T21:39:05.206Z,2.65
2023-03-28T21:41:52.468Z,5.32
2023-03-28T21:44:39.557Z,2.10
2023-03-28T21:47:26.849Z,4.38
2023-03-28T21:50:15.313Z,6.35
2023-03-28T21:53:02.364Z,3.72
2023-03-28T21:55:51.214Z,6.05
2023-03-28T21:58:38.379Z,4.10
2023-03-28T22:01:25.632Z,2.40
2023-03-28T22:04:12.721Z,3.30
2023-03-28T22:06:59.833Z,5.70
2023-03-28T22:09:51.096Z,4.00
2023-03-28T22:12:38.169Z,6.38
2023-03-28T22:15:26.048Z,4.90
2023-03-28T22:18:13.422Z,5.28
2023-03-28T22:21:02.748Z,4.63
2023-03-28T22:23:50.027Z,4.75
2023-03-28T22:26:37.103Z,7.75
2023-03-28T22:29:24.172Z,5.15
2023-03-28T22:32:11.489Z,4.30
2023-03-28T22:34:58.582Z,5.93
2023-03-28T22:37:45.668Z,6.30
2023-03-28T22:40:33.049Z,3.45
2023-03-28T22:43:20.094Z,5.65
2023-03-28T22:46:07.284Z,3.95
2023-03-28T22:48:58.069Z,5.90
2023-03-28T22:51:48.366Z,5.32
2023-03-28T22:54:37.073Z,3.10
2023-03-28T22:57:24.268Z,4.03
2023-03-28T23:03:33.455Z,10.23
2023-03-28T23:06:20.669Z,8.57
2023-03-28T23:09:08.668Z,10.25
2023-03-28T23:11:56.047Z,8.57
2023-03-28T23:14:43.243Z,5.93
2023-03-28T23:17:30.342Z,7.40
2023-03-28T23:20:19.249Z,4.15
2023-03-28T23:23:06.912Z,6.28
2023-03-28T23:25:53.972Z,5.63
2023-03-28T23:28:41.164Z,7.43
2023-03-28T23:31:28.525Z,5.20
2023-03-28T23:34:16.472Z,4.63
2023-03-28T23:37:04.189Z,7.05
2023-03-28T23:39:51.476Z,2.50
2023-03-28T23:42:38.533Z,2.63
2023-03-28T23:45:25.942Z,5.72
2023-03-28T23:48:13.313Z,4.57
2023-03-28T23:51:04.328Z,4.18
2023-03-28T23:53:51.737Z,3.97
2023-03-28T23:56:39.071Z,7.78
2023-03-28T23:59:26.285Z,5.38
